sensor_id;sensor_type;location;lat;lon;timestamp;P1;durP1;ratioP1;P2;durP2;ratioP2
69305;SDS011;56427;51.580;4.656;2023-06-26T00:02:16;8.17;;;4.87;;
69305;SDS011;56427;51.580;4.656;2023-06-26T00:04:42;8.27;;;4.87;;
69305;SDS011;56427;51.580;4.656;2023-06-26T00:07:08;7.32;;;4.53;;
69305;SDS011;56427;51.580;4.656;2023-06-26T00:09:34;7.67;;;4.73;;
69305;SDS011;56427;51.580;4.656;2023-06-26T00:11:59;8.70;;;4.50;;
69305;SDS011;56427;51.580;4.656;2023-06-26T00:14:25;9.27;;;4.73;;
69305;SDS011;56427;51.580;4.656;2023-06-26T00:16:51;7.60;;;4.07;;
69305;SDS011;56427;51.580;4.656;2023-06-26T00:19:16;8.23;;;4.40;;
69305;SDS011;56427;51.580;4.656;2023-06-26T00:21:42;7.32;;;4.60;;
69305;SDS011;56427;51.580;4.656;2023-06-26T00:24:13;6.90;;;3.83;;
69305;SDS011;56427;51.580;4.656;2023-06-26T00:26:39;7.43;;;3.90;;
69305;SDS011;56427;51.580;4.656;2023-06-26T00:29:04;6.90;;;4.13;;
69305;SDS011;56427;51.580;4.656;2023-06-26T00:31:29;9.85;;;4.60;;
69305;SDS011;56427;51.580;4.656;2023-06-26T00:33:55;9.10;;;4.10;;
69305;SDS011;56427;51.580;4.656;2023-06-26T00:36:20;7.63;;;4.33;;
69305;SDS011;56427;51.580;4.656;2023-06-26T00:38:47;10.95;;;4.32;;
69305;SDS011;56427;51.580;4.656;2023-06-26T00:41:13;8.63;;;4.03;;
69305;SDS011;56427;51.580;4.656;2023-06-26T00:43:38;8.90;;;4.57;;
69305;SDS011;56427;51.580;4.656;2023-06-26T00:46:05;7.35;;;4.40;;
69305;SDS011;56427;51.580;4.656;2023-06-26T00:48:37;7.30;;;3.95;;
69305;SDS011;56427;51.580;4.656;2023-06-26T00:51:03;10.55;;;4.70;;
69305;SDS011;56427;51.580;4.656;2023-06-26T00:53:30;9.77;;;4.37;;
69305;SDS011;56427;51.580;4.656;2023-06-26T00:55:56;8.77;;;4.65;;
69305;SDS011;56427;51.580;4.656;2023-06-26T00:58:21;6.87;;;4.03;;
69305;SDS011;56427;51.580;4.656;2023-06-26T01:00:49;8.35;;;4.53;;
69305;SDS011;56427;51.580;4.656;2023-06-26T01:03:17;8.82;;;4.10;;
69305;SDS011;56427;51.580;4.656;2023-06-26T01:05:44;8.85;;;4.10;;
69305;SDS011;56427;51.580;4.656;2023-06-26T01:08:11;7.67;;;4.13;;
69305;SDS011;56427;51.580;4.656;2023-06-26T01:10:37;7.75;;;3.70;;
69305;SDS011;56427;51.580;4.656;2023-06-26T01:13:03;9.07;;;3.77;;
69305;SDS011;56427;51.580;4.656;2023-06-26T01:15:29;10.18;;;4.20;;
69305;SDS011;56427;51.580;4.656;2023-06-26T01:17:54;7.70;;;4.10;;
69305;SDS011;56427;51.580;4.656;2023-06-26T01:20:24;8.25;;;3.85;;
69305;SDS011;56427;51.580;4.656;2023-06-26T01:23:03;10.80;;;4.25;;
69305;SDS011;56427;51.580;4.656;2023-06-26T01:28:14;9.88;;;4.18;;
69305;SDS011;56427;51.580;4.656;2023-06-26T01:30:43;9.20;;;3.57;;
69305;SDS011;56427;51.580;4.656;2023-06-26T01:33:10;10.80;;;4.00;;
69305;SDS011;56427;51.580;4.656;2023-06-26T01:35:37;10.55;;;4.43;;
69305;SDS011;56427;51.580;4.656;2023-06-26T01:40:38;13.13;;;4.20;;
69305;SDS011;56427;51.580;4.656;2023-06-26T01:43:05;12.75;;;4.25;;
69305;SDS011;56427;51.580;4.656;2023-06-26T01:45:34;15.73;;;4.20;;
69305;SDS011;56427;51.580;4.656;2023-06-26T01:48:00;11.25;;;4.78;;
69305;SDS011;56427;51.580;4.656;2023-06-26T01:50:28;9.77;;;3.92;;
69305;SDS011;56427;51.580;4.656;2023-06-26T01:53:04;11.88;;;4.15;;
69305;SDS011;56427;51.580;4.656;2023-06-26T01:58:06;13.23;;;4.90;;
69305;SDS011;56427;51.580;4.656;2023-06-26T02:00:33;9.45;;;4.00;;
69305;SDS011;56427;51.580;4.656;2023-06-26T02:02:59;14.13;;;4.35;;
69305;SDS011;56427;51.580;4.656;2023-06-26T02:05:25;8.83;;;4.23;;
69305;SDS011;56427;51.580;4.656;2023-06-26T02:07:50;10.43;;;4.03;;
69305;SDS011;56427;51.580;4.656;2023-06-26T02:10:16;9.07;;;3.80;;
69305;SDS011;56427;51.580;4.656;2023-06-26T02:12:41;9.77;;;4.03;;
69305;SDS011;56427;51.580;4.656;2023-06-26T02:15:07;10.45;;;4.60;;
69305;SDS011;56427;51.580;4.656;2023-06-26T02:17:33;10.57;;;4.23;;
69305;SDS011;56427;51.580;4.656;2023-06-26T02:19:59;12.48;;;4.65;;
69305;SDS011;56427;51.580;4.656;2023-06-26T02:22:24;10.53;;;4.47;;
69305;SDS011;56427;51.580;4.656;2023-06-26T02:24:50;12.53;;;5.03;;
69305;SDS011;56427;51.580;4.656;2023-06-26T02:27:15;16.63;;;5.00;;
69305;SDS011;56427;51.580;4.656;2023-06-26T02:29:40;17.83;;;5.10;;
69305;SDS011;56427;51.580;4.656;2023-06-26T02:32:06;14.33;;;5.07;;
69305;SDS011;56427;51.580;4.656;2023-06-26T02:34:32;15.57;;;5.22;;
69305;SDS011;56427;51.580;4.656;2023-06-26T02:36:58;16.58;;;5.30;;
69305;SDS011;56427;51.580;4.656;2023-06-26T02:39:25;12.53;;;5.00;;
69305;SDS011;56427;51.580;4.656;2023-06-26T02:41:51;18.10;;;5.57;;
69305;SDS011;56427;51.580;4.656;2023-06-26T02:44:16;16.73;;;5.57;;
69305;SDS011;56427;51.580;4.656;2023-06-26T02:46:41;20.17;;;6.20;;
69305;SDS011;56427;51.580;4.656;2023-06-26T02:49:07;14.93;;;5.38;;
69305;SDS011;56427;51.580;4.656;2023-06-26T02:51:33;14.90;;;5.60;;
69305;SDS011;56427;51.580;4.656;2023-06-26T02:53:59;21.77;;;5.88;;
69305;SDS011;56427;51.580;4.656;2023-06-26T02:56:24;16.77;;;5.33;;
69305;SDS011;56427;51.580;4.656;2023-06-26T02:58:53;15.05;;;5.25;;
69305;SDS011;56427;51.580;4.656;2023-06-26T03:01:19;18.15;;;5.05;;
69305;SDS011;56427;51.580;4.656;2023-06-26T03:03:45;20.80;;;5.90;;
69305;SDS011;56427;51.580;4.656;2023-06-26T03:06:12;15.77;;;5.43;;
69305;SDS011;56427;51.580;4.656;2023-06-26T03:08:37;14.85;;;5.18;;
69305;SDS011;56427;51.580;4.656;2023-06-26T03:11:07;19.05;;;5.10;;
69305;SDS011;56427;51.580;4.656;2023-06-26T03:13:34;15.07;;;5.27;;
69305;SDS011;56427;51.580;4.656;2023-06-26T03:16:00;15.60;;;5.25;;
69305;SDS011;56427;51.580;4.656;2023-06-26T03:18:26;20.45;;;5.63;;
69305;SDS011;56427;51.580;4.656;2023-06-26T03:20:52;19.50;;;5.57;;
69305;SDS011;56427;51.580;4.656;2023-06-26T03:23:21;17.88;;;5.03;;
69305;SDS011;56427;51.580;4.656;2023-06-26T03:25:47;14.35;;;5.35;;
69305;SDS011;56427;51.580;4.656;2023-06-26T03:28:13;20.83;;;5.40;;
69305;SDS011;56427;51.580;4.656;2023-06-26T03:30:39;21.73;;;5.47;;
69305;SDS011;56427;51.580;4.656;2023-06-26T03:33:04;21.07;;;5.37;;
69305;SDS011;56427;51.580;4.656;2023-06-26T03:35:29;21.37;;;5.57;;
69305;SDS011;56427;51.580;4.656;2023-06-26T03:37:55;15.73;;;4.90;;
69305;SDS011;56427;51.580;4.656;2023-06-26T03:40:20;20.17;;;5.40;;
69305;SDS011;56427;51.580;4.656;2023-06-26T03:42:46;14.67;;;5.37;;
69305;SDS011;56427;51.580;4.656;2023-06-26T03:45:11;18.20;;;5.20;;
69305;SDS011;56427;51.580;4.656;2023-06-26T03:47:36;24.10;;;5.30;;
69305;SDS011;56427;51.580;4.656;2023-06-26T03:50:02;17.20;;;5.13;;
69305;SDS011;56427;51.580;4.656;2023-06-26T03:52:27;15.20;;;5.23;;
69305;SDS011;56427;51.580;4.656;2023-06-26T03:54:55;17.48;;;4.35;;
69305;SDS011;56427;51.580;4.656;2023-06-26T03:57:22;16.67;;;5.28;;
69305;SDS011;56427;51.580;4.656;2023-06-26T03:59:47;18.03;;;4.37;;
69305;SDS011;56427;51.580;4.656;2023-06-26T04:02:13;17.37;;;4.43;;
69305;SDS011;56427;51.580;4.656;2023-06-26T04:04:38;17.77;;;4.70;;
69305;SDS011;56427;51.580;4.656;2023-06-26T04:07:04;15.07;;;4.45;;
69305;SDS011;56427;51.580;4.656;2023-06-26T04:09:29;22.97;;;5.10;;
69305;SDS011;56427;51.580;4.656;2023-06-26T04:11:54;20.47;;;4.87;;
69305;SDS011;56427;51.580;4.656;2023-06-26T04:14:20;17.87;;;5.17;;
69305;SDS011;56427;51.580;4.656;2023-06-26T04:16:45;17.50;;;4.68;;
69305;SDS011;56427;51.580;4.656;2023-06-26T04:19:11;19.83;;;5.00;;
69305;SDS011;56427;51.580;4.656;2023-06-26T04:21:37;18.00;;;4.93;;
69305;SDS011;56427;51.580;4.656;2023-06-26T04:24:02;15.27;;;4.20;;
69305;SDS011;56427;51.580;4.656;2023-06-26T04:26:28;16.37;;;4.13;;
69305;SDS011;56427;51.580;4.656;2023-06-26T04:28:53;16.93;;;4.40;;
69305;SDS011;56427;51.580;4.656;2023-06-26T04:31:19;14.80;;;4.07;;
69305;SDS011;56427;51.580;4.656;2023-06-26T04:33:45;14.57;;;4.07;;
69305;SDS011;56427;51.580;4.656;2023-06-26T04:36:15;14.10;;;4.00;;
69305;SDS011;56427;51.580;4.656;2023-06-26T04:38:41;14.73;;;4.03;;
69305;SDS011;56427;51.580;4.656;2023-06-26T04:41:07;13.63;;;3.80;;
69305;SDS011;56427;51.580;4.656;2023-06-26T04:43:32;16.23;;;4.27;;
69305;SDS011;56427;51.580;4.656;2023-06-26T04:45:57;14.85;;;3.50;;
69305;SDS011;56427;51.580;4.656;2023-06-26T04:48:23;13.73;;;3.43;;
69305;SDS011;56427;51.580;4.656;2023-06-26T04:50:48;10.67;;;3.53;;
69305;SDS011;56427;51.580;4.656;2023-06-26T04:53:19;12.88;;;3.78;;
69305;SDS011;56427;51.580;4.656;2023-06-26T04:55:45;15.50;;;3.92;;
69305;SDS011;56427;51.580;4.656;2023-06-26T04:58:11;12.43;;;3.30;;
69305;SDS011;56427;51.580;4.656;2023-06-26T05:00:36;13.57;;;3.23;;
69305;SDS011;56427;51.580;4.656;2023-06-26T05:03:02;12.67;;;3.23;;
69305;SDS011;56427;51.580;4.656;2023-06-26T05:05:27;12.97;;;3.33;;
69305;SDS011;56427;51.580;4.656;2023-06-26T05:07:53;13.60;;;3.55;;
69305;SDS011;56427;51.580;4.656;2023-06-26T05:10:20;12.00;;;3.25;;
69305;SDS011;56427;51.580;4.656;2023-06-26T05:12:45;8.73;;;2.73;;
69305;SDS011;56427;51.580;4.656;2023-06-26T05:15:10;11.70;;;3.00;;
69305;SDS011;56427;51.580;4.656;2023-06-26T05:17:36;16.88;;;3.20;;
69305;SDS011;56427;51.580;4.656;2023-06-26T05:20:01;14.13;;;3.17;;
69305;SDS011;56427;51.580;4.656;2023-06-26T05:22:28;6.78;;;2.30;;
69305;SDS011;56427;51.580;4.656;2023-06-26T05:24:54;7.60;;;2.37;;
69305;SDS011;56427;51.580;4.656;2023-06-26T05:27:20;7.05;;;2.28;;
69305;SDS011;56427;51.580;4.656;2023-06-26T05:29:47;11.05;;;2.60;;
69305;SDS011;56427;51.580;4.656;2023-06-26T05:32:15;11.23;;;2.35;;
69305;SDS011;56427;51.580;4.656;2023-06-26T05:34:48;8.63;;;2.10;;
69305;SDS011;56427;51.580;4.656;2023-06-26T05:37:18;9.90;;;2.03;;
69305;SDS011;56427;51.580;4.656;2023-06-26T05:39:45;7.43;;;2.00;;
69305;SDS011;56427;51.580;4.656;2023-06-26T05:42:11;8.13;;;1.90;;
69305;SDS011;56427;51.580;4.656;2023-06-26T05:44:37;8.82;;;1.95;;
69305;SDS011;56427;51.580;4.656;2023-06-26T05:47:02;8.53;;;1.90;;
69305;SDS011;56427;51.580;4.656;2023-06-26T05:49:28;8.63;;;1.83;;
69305;SDS011;56427;51.580;4.656;2023-06-26T05:51:53;9.00;;;2.13;;
69305;SDS011;56427;51.580;4.656;2023-06-26T05:54:19;6.97;;;1.60;;
69305;SDS011;56427;51.580;4.656;2023-06-26T05:56:45;11.68;;;2.13;;
69305;SDS011;56427;51.580;4.656;2023-06-26T05:59:11;7.60;;;2.07;;
69305;SDS011;56427;51.580;4.656;2023-06-26T06:01:38;7.07;;;1.80;;
69305;SDS011;56427;51.580;4.656;2023-06-26T06:04:03;7.00;;;2.03;;
69305;SDS011;56427;51.580;4.656;2023-06-26T06:06:29;7.65;;;1.70;;
69305;SDS011;56427;51.580;4.656;2023-06-26T06:08:54;5.60;;;1.60;;
69305;SDS011;56427;51.580;4.656;2023-06-26T06:11:20;5.77;;;1.63;;
69305;SDS011;56427;51.580;4.656;2023-06-26T06:13:45;6.50;;;1.70;;
69305;SDS011;56427;51.580;4.656;2023-06-26T06:16:10;5.83;;;1.40;;
69305;SDS011;56427;51.580;4.656;2023-06-26T06:18:36;7.70;;;2.00;;
69305;SDS011;56427;51.580;4.656;2023-06-26T06:21:01;4.47;;;1.70;;
69305;SDS011;56427;51.580;4.656;2023-06-26T06:23:28;5.38;;;1.60;;
69305;SDS011;56427;51.580;4.656;2023-06-26T06:25:56;8.37;;;1.60;;
69305;SDS011;56427;51.580;4.656;2023-06-26T06:28:24;6.85;;;1.95;;
69305;SDS011;56427;51.580;4.656;2023-06-26T06:30:49;6.90;;;1.77;;
69305;SDS011;56427;51.580;4.656;2023-06-26T06:33:15;4.13;;;1.25;;
69305;SDS011;56427;51.580;4.656;2023-06-26T06:35:41;6.47;;;1.73;;
69305;SDS011;56427;51.580;4.656;2023-06-26T06:38:17;8.27;;;1.63;;
69305;SDS011;56427;51.580;4.656;2023-06-26T06:40:46;6.28;;;1.85;;
69305;SDS011;56427;51.580;4.656;2023-06-26T06:43:20;7.18;;;1.55;;
69305;SDS011;56427;51.580;4.656;2023-06-26T06:45:46;5.80;;;1.50;;
69305;SDS011;56427;51.580;4.656;2023-06-26T06:48:15;9.63;;;1.90;;
69305;SDS011;56427;51.580;4.656;2023-06-26T06:50:43;4.63;;;1.40;;
69305;SDS011;56427;51.580;4.656;2023-06-26T06:53:09;4.95;;;1.45;;
69305;SDS011;56427;51.580;4.656;2023-06-26T06:55:35;5.03;;;1.60;;
69305;SDS011;56427;51.580;4.656;2023-06-26T06:58:03;5.70;;;1.53;;
69305;SDS011;56427;51.580;4.656;2023-06-26T07:00:41;5.28;;;1.48;;
69305;SDS011;56427;51.580;4.656;2023-06-26T07:03:10;7.53;;;1.75;;
69305;SDS011;56427;51.580;4.656;2023-06-26T07:05:36;5.20;;;1.60;;
69305;SDS011;56427;51.580;4.656;2023-06-26T07:08:02;8.00;;;1.70;;
69305;SDS011;56427;51.580;4.656;2023-06-26T07:10:28;4.70;;;1.38;;
69305;SDS011;56427;51.580;4.656;2023-06-26T07:12:53;11.43;;;1.70;;
69305;SDS011;56427;51.580;4.656;2023-06-26T07:15:19;7.28;;;1.83;;
69305;SDS011;56427;51.580;4.656;2023-06-26T07:17:44;6.17;;;1.87;;
69305;SDS011;56427;51.580;4.656;2023-06-26T07:20:09;5.03;;;1.70;;
69305;SDS011;56427;51.580;4.656;2023-06-26T07:22:40;6.80;;;2.00;;
69305;SDS011;56427;51.580;4.656;2023-06-26T07:25:06;4.77;;;1.60;;
69305;SDS011;56427;51.580;4.656;2023-06-26T07:27:34;8.60;;;1.97;;
69305;SDS011;56427;51.580;4.656;2023-06-26T07:30:00;7.28;;;1.90;;
69305;SDS011;56427;51.580;4.656;2023-06-26T07:32:25;7.07;;;1.70;;
69305;SDS011;56427;51.580;4.656;2023-06-26T07:34:51;4.35;;;1.40;;
69305;SDS011;56427;51.580;4.656;2023-06-26T07:37:16;7.23;;;1.50;;
69305;SDS011;56427;51.580;4.656;2023-06-26T07:39:41;7.57;;;1.70;;
69305;SDS011;56427;51.580;4.656;2023-06-26T07:42:07;8.60;;;1.70;;
69305;SDS011;56427;51.580;4.656;2023-06-26T07:44:32;6.03;;;1.77;;
69305;SDS011;56427;51.580;4.656;2023-06-26T07:46:57;11.83;;;1.60;;
69305;SDS011;56427;51.580;4.656;2023-06-26T07:49:23;7.53;;;1.50;;
69305;SDS011;56427;51.580;4.656;2023-06-26T07:51:48;5.73;;;1.40;;
69305;SDS011;56427;51.580;4.656;2023-06-26T07:54:14;6.77;;;1.60;;
69305;SDS011;56427;51.580;4.656;2023-06-26T07:56:59;4.38;;;1.42;;
69305;SDS011;56427;51.580;4.656;2023-06-26T07:59:26;6.28;;;1.58;;
69305;SDS011;56427;51.580;4.656;2023-06-26T08:01:56;4.97;;;1.50;;
69305;SDS011;56427;51.580;4.656;2023-06-26T08:04:26;5.93;;;1.50;;
69305;SDS011;56427;51.580;4.656;2023-06-26T08:06:55;4.65;;;1.67;;
69305;SDS011;56427;51.580;4.656;2023-06-26T08:09:22;9.38;;;1.63;;
69305;SDS011;56427;51.580;4.656;2023-06-26T08:11:52;5.63;;;1.55;;
69305;SDS011;56427;51.580;4.656;2023-06-26T08:14:21;5.23;;;1.40;;
69305;SDS011;56427;51.580;4.656;2023-06-26T08:16:50;7.95;;;1.20;;
69305;SDS011;56427;51.580;4.656;2023-06-26T08:19:16;6.65;;;1.40;;
69305;SDS011;56427;51.580;4.656;2023-06-26T08:21:42;9.48;;;1.75;;
69305;SDS011;56427;51.580;4.656;2023-06-26T08:24:14;7.40;;;1.67;;
69305;SDS011;56427;51.580;4.656;2023-06-26T08:26:44;8.07;;;1.60;;
69305;SDS011;56427;51.580;4.656;2023-06-26T08:29:11;4.53;;;1.50;;
69305;SDS011;56427;51.580;4.656;2023-06-26T08:31:37;6.68;;;1.60;;
69305;SDS011;56427;51.580;4.656;2023-06-26T08:34:03;6.10;;;1.30;;
69305;SDS011;56427;51.580;4.656;2023-06-26T08:36:29;5.90;;;1.35;;
69305;SDS011;56427;51.580;4.656;2023-06-26T08:38:55;6.35;;;1.70;;
69305;SDS011;56427;51.580;4.656;2023-06-26T08:41:21;4.67;;;1.50;;
69305;SDS011;56427;51.580;4.656;2023-06-26T08:43:46;5.78;;;1.20;;
69305;SDS011;56427;51.580;4.656;2023-06-26T08:46:13;12.30;;;1.60;;
69305;SDS011;56427;51.580;4.656;2023-06-26T08:48:39;4.90;;;1.33;;
69305;SDS011;56427;51.580;4.656;2023-06-26T08:51:11;4.63;;;1.40;;
69305;SDS011;56427;51.580;4.656;2023-06-26T08:53:47;4.90;;;1.23;;
69305;SDS011;56427;51.580;4.656;2023-06-26T08:56:17;3.28;;;1.17;;
69305;SDS011;56427;51.580;4.656;2023-06-26T08:58:46;4.45;;;1.35;;
69305;SDS011;56427;51.580;4.656;2023-06-26T09:01:11;5.10;;;1.53;;
69305;SDS011;56427;51.580;4.656;2023-06-26T09:03:37;11.40;;;1.83;;
69305;SDS011;56427;51.580;4.656;2023-06-26T09:06:03;4.07;;;1.37;;
69305;SDS011;56427;51.580;4.656;2023-06-26T09:08:28;6.33;;;1.50;;
69305;SDS011;56427;51.580;4.656;2023-06-26T09:10:54;4.33;;;1.60;;
69305;SDS011;56427;51.580;4.656;2023-06-26T09:13:19;6.60;;;1.70;;
69305;SDS011;56427;51.580;4.656;2023-06-26T09:15:45;8.43;;;1.77;;
69305;SDS011;56427;51.580;4.656;2023-06-26T09:18:11;5.38;;;1.50;;
69305;SDS011;56427;51.580;4.656;2023-06-26T09:20:38;7.53;;;1.80;;
69305;SDS011;56427;51.580;4.656;2023-06-26T09:23:03;5.13;;;1.60;;
69305;SDS011;56427;51.580;4.656;2023-06-26T09:25:29;5.50;;;1.70;;
69305;SDS011;56427;51.580;4.656;2023-06-26T09:27:55;5.43;;;1.90;;
69305;SDS011;56427;51.580;4.656;2023-06-26T09:30:23;6.15;;;1.73;;
69305;SDS011;56427;51.580;4.656;2023-06-26T09:32:49;5.68;;;1.60;;
69305;SDS011;56427;51.580;4.656;2023-06-26T09:35:19;5.97;;;1.63;;
69305;SDS011;56427;51.580;4.656;2023-06-26T09:37:45;5.70;;;1.90;;
69305;SDS011;56427;51.580;4.656;2023-06-26T09:40:10;6.30;;;1.80;;
69305;SDS011;56427;51.580;4.656;2023-06-26T09:42:36;5.90;;;1.67;;
69305;SDS011;56427;51.580;4.656;2023-06-26T09:45:02;7.32;;;1.92;;
69305;SDS011;56427;51.580;4.656;2023-06-26T09:47:30;6.67;;;1.63;;
69305;SDS011;56427;51.580;4.656;2023-06-26T09:49:56;4.65;;;1.73;;
69305;SDS011;56427;51.580;4.656;2023-06-26T09:52:25;7.20;;;1.93;;
69305;SDS011;56427;51.580;4.656;2023-06-26T09:54:51;7.75;;;1.88;;
69305;SDS011;56427;51.580;4.656;2023-06-26T09:57:34;9.15;;;1.50;;
69305;SDS011;56427;51.580;4.656;2023-06-26T10:00:00;5.07;;;1.58;;
69305;SDS011;56427;51.580;4.656;2023-06-26T10:02:26;4.97;;;1.70;;
69305;SDS011;56427;51.580;4.656;2023-06-26T10:04:51;5.75;;;1.63;;
69305;SDS011;56427;51.580;4.656;2023-06-26T10:07:17;5.20;;;1.40;;
69305;SDS011;56427;51.580;4.656;2023-06-26T10:09:44;4.55;;;1.40;;
69305;SDS011;56427;51.580;4.656;2023-06-26T10:14:51;6.47;;;1.50;;
69305;SDS011;56427;51.580;4.656;2023-06-26T10:17:19;5.25;;;1.48;;
69305;SDS011;56427;51.580;4.656;2023-06-26T10:19:47;6.20;;;1.70;;
69305;SDS011;56427;51.580;4.656;2023-06-26T10:22:15;5.70;;;1.77;;
69305;SDS011;56427;51.580;4.656;2023-06-26T10:24:42;6.27;;;1.33;;
69305;SDS011;56427;51.580;4.656;2023-06-26T10:27:19;4.15;;;1.15;;
69305;SDS011;56427;51.580;4.656;2023-06-26T10:29:54;4.78;;;1.52;;
69305;SDS011;56427;51.580;4.656;2023-06-26T10:32:22;4.07;;;1.33;;
69305;SDS011;56427;51.580;4.656;2023-06-26T10:34:50;5.18;;;1.65;;
69305;SDS011;56427;51.580;4.656;2023-06-26T10:37:16;7.10;;;1.80;;
69305;SDS011;56427;51.580;4.656;2023-06-26T10:42:14;5.50;;;1.80;;
69305;SDS011;56427;51.580;4.656;2023-06-26T10:44:40;4.45;;;1.60;;
69305;SDS011;56427;51.580;4.656;2023-06-26T10:47:08;5.35;;;1.65;;
69305;SDS011;56427;51.580;4.656;2023-06-26T10:49:37;5.43;;;1.43;;
69305;SDS011;56427;51.580;4.656;2023-06-26T10:52:04;5.30;;;1.70;;
69305;SDS011;56427;51.580;4.656;2023-06-26T10:54:33;5.88;;;2.15;;
69305;SDS011;56427;51.580;4.656;2023-06-26T10:56:58;5.88;;;1.67;;
69305;SDS011;56427;51.580;4.656;2023-06-26T10:59:28;6.43;;;2.00;;
69305;SDS011;56427;51.580;4.656;2023-06-26T11:09:54;5.80;;;1.83;;
69305;SDS011;56427;51.580;4.656;2023-06-26T11:15:10;4.53;;;1.50;;
69305;SDS011;56427;51.580;4.656;2023-06-26T11:17:42;5.07;;;1.33;;
69305;SDS011;56427;51.580;4.656;2023-06-26T11:20:09;7.00;;;1.50;;
69305;SDS011;56427;51.580;4.656;2023-06-26T11:22:36;8.02;;;1.33;;
69305;SDS011;56427;51.580;4.656;2023-06-26T11:25:03;5.07;;;1.07;;
69305;SDS011;56427;51.580;4.656;2023-06-26T11:27:31;4.53;;;1.20;;
69305;SDS011;56427;51.580;4.656;2023-06-26T11:30:06;4.57;;;1.60;;
69305;SDS011;56427;51.580;4.656;2023-06-26T11:32:34;4.47;;;1.50;;
69305;SDS011;56427;51.580;4.656;2023-06-26T11:34:59;6.40;;;1.65;;
69305;SDS011;56427;51.580;4.656;2023-06-26T11:37:25;5.17;;;1.60;;
69305;SDS011;56427;51.580;4.656;2023-06-26T11:39:50;3.20;;;1.40;;
69305;SDS011;56427;51.580;4.656;2023-06-26T11:42:19;6.72;;;1.60;;
69305;SDS011;56427;51.580;4.656;2023-06-26T11:44:45;4.35;;;1.48;;
69305;SDS011;56427;51.580;4.656;2023-06-26T11:47:15;4.18;;;1.35;;
69305;SDS011;56427;51.580;4.656;2023-06-26T11:49:42;6.97;;;1.40;;
69305;SDS011;56427;51.580;4.656;2023-06-26T11:52:08;6.80;;;1.58;;
69305;SDS011;56427;51.580;4.656;2023-06-26T11:54:33;3.65;;;1.33;;
69305;SDS011;56427;51.580;4.656;2023-06-26T11:56:59;2.97;;;1.20;;
69305;SDS011;56427;51.580;4.656;2023-06-26T11:59:32;5.33;;;1.40;;
69305;SDS011;56427;51.580;4.656;2023-06-26T12:01:59;4.95;;;1.42;;
69305;SDS011;56427;51.580;4.656;2023-06-26T12:04:24;4.63;;;1.40;;
69305;SDS011;56427;51.580;4.656;2023-06-26T12:06:51;3.50;;;1.33;;
69305;SDS011;56427;51.580;4.656;2023-06-26T12:09:22;5.65;;;1.38;;
69305;SDS011;56427;51.580;4.656;2023-06-26T12:11:49;3.85;;;1.45;;
69305;SDS011;56427;51.580;4.656;2023-06-26T12:14:19;4.32;;;1.20;;
69305;SDS011;56427;51.580;4.656;2023-06-26T12:16:45;6.33;;;1.10;;
69305;SDS011;56427;51.580;4.656;2023-06-26T12:19:12;4.25;;;1.17;;
69305;SDS011;56427;51.580;4.656;2023-06-26T12:24:03;4.90;;;1.10;;
69305;SDS011;56427;51.580;4.656;2023-06-26T12:26:29;4.32;;;1.40;;
69305;SDS011;56427;51.580;4.656;2023-06-26T12:29:05;4.32;;;1.50;;
69305;SDS011;56427;51.580;4.656;2023-06-26T12:31:32;4.07;;;1.27;;
69305;SDS011;56427;51.580;4.656;2023-06-26T12:33:58;3.38;;;1.20;;
69305;SDS011;56427;51.580;4.656;2023-06-26T12:36:24;3.80;;;1.17;;
69305;SDS011;56427;51.580;4.656;2023-06-26T12:38:49;3.30;;;1.30;;
69305;SDS011;56427;51.580;4.656;2023-06-26T12:41:15;4.68;;;1.30;;
69305;SDS011;56427;51.580;4.656;2023-06-26T12:43:41;4.10;;;1.10;;
69305;SDS011;56427;51.580;4.656;2023-06-26T12:46:07;4.18;;;1.00;;
69305;SDS011;56427;51.580;4.656;2023-06-26T12:48:39;4.23;;;1.37;;
69305;SDS011;56427;51.580;4.656;2023-06-26T12:51:14;3.53;;;1.40;;
69305;SDS011;56427;51.580;4.656;2023-06-26T12:53:41;3.88;;;1.30;;
69305;SDS011;56427;51.580;4.656;2023-06-26T12:56:07;5.95;;;1.50;;
69305;SDS011;56427;51.580;4.656;2023-06-26T12:58:34;6.72;;;1.30;;
69305;SDS011;56427;51.580;4.656;2023-06-26T13:01:01;4.33;;;1.30;;
69305;SDS011;56427;51.580;4.656;2023-06-26T13:03:28;3.75;;;1.40;;
69305;SDS011;56427;51.580;4.656;2023-06-26T13:05:53;4.57;;;1.23;;
69305;SDS011;56427;51.580;4.656;2023-06-26T13:08:19;2.92;;;1.20;;
69305;SDS011;56427;51.580;4.656;2023-06-26T13:10:44;4.83;;;1.23;;
69305;SDS011;56427;51.580;4.656;2023-06-26T13:13:10;5.33;;;1.20;;
69305;SDS011;56427;51.580;4.656;2023-06-26T13:15:36;4.78;;;1.20;;
69305;SDS011;56427;51.580;4.656;2023-06-26T13:18:01;2.87;;;0.97;;
69305;SDS011;56427;51.580;4.656;2023-06-26T13:20:27;5.73;;;1.60;;
69305;SDS011;56427;51.580;4.656;2023-06-26T13:22:53;3.00;;;1.17;;
69305;SDS011;56427;51.580;4.656;2023-06-26T13:25:19;5.53;;;1.00;;
69305;SDS011;56427;51.580;4.656;2023-06-26T13:27:45;3.90;;;1.40;;
69305;SDS011;56427;51.580;4.656;2023-06-26T13:30:10;4.03;;;1.13;;
69305;SDS011;56427;51.580;4.656;2023-06-26T13:32:36;3.50;;;1.15;;
69305;SDS011;56427;51.580;4.656;2023-06-26T13:35:02;3.57;;;1.00;;
69305;SDS011;56427;51.580;4.656;2023-06-26T13:37:28;3.65;;;1.00;;
69305;SDS011;56427;51.580;4.656;2023-06-26T13:39:54;5.63;;;1.00;;
69305;SDS011;56427;51.580;4.656;2023-06-26T13:42:19;6.30;;;1.20;;
69305;SDS011;56427;51.580;4.656;2023-06-26T13:44:44;4.83;;;1.40;;
69305;SDS011;56427;51.580;4.656;2023-06-26T13:47:12;3.90;;;1.25;;
69305;SDS011;56427;51.580;4.656;2023-06-26T13:49:38;2.65;;;1.00;;
69305;SDS011;56427;51.580;4.656;2023-06-26T13:52:03;4.30;;;1.20;;
69305;SDS011;56427;51.580;4.656;2023-06-26T13:54:29;3.10;;;0.97;;
69305;SDS011;56427;51.580;4.656;2023-06-26T13:56:54;6.07;;;1.27;;
69305;SDS011;56427;51.580;4.656;2023-06-26T13:59:22;4.85;;;1.15;;
69305;SDS011;56427;51.580;4.656;2023-06-26T14:01:50;4.40;;;1.17;;
69305;SDS011;56427;51.580;4.656;2023-06-26T14:04:15;4.10;;;1.10;;
69305;SDS011;56427;51.580;4.656;2023-06-26T14:06:40;3.50;;;1.00;;
69305;SDS011;56427;51.580;4.656;2023-06-26T14:09:07;4.10;;;1.30;;
69305;SDS011;56427;51.580;4.656;2023-06-26T14:11:33;7.45;;;1.33;;
69305;SDS011;56427;51.580;4.656;2023-06-26T14:13:59;4.75;;;1.40;;
69305;SDS011;56427;51.580;4.656;2023-06-26T14:16:24;5.67;;;1.10;;
69305;SDS011;56427;51.580;4.656;2023-06-26T14:18:50;4.80;;;1.20;;
69305;SDS011;56427;51.580;4.656;2023-06-26T14:21:16;3.97;;;1.30;;
69305;SDS011;56427;51.580;4.656;2023-06-26T14:23:41;3.88;;;1.50;;
69305;SDS011;56427;51.580;4.656;2023-06-26T14:26:09;4.07;;;1.40;;
69305;SDS011;56427;51.580;4.656;2023-06-26T14:28:35;4.83;;;1.10;;
69305;SDS011;56427;51.580;4.656;2023-06-26T14:31:00;3.63;;;1.15;;
69305;SDS011;56427;51.580;4.656;2023-06-26T14:33:26;4.83;;;1.57;;
69305;SDS011;56427;51.580;4.656;2023-06-26T14:35:51;4.67;;;1.30;;
69305;SDS011;56427;51.580;4.656;2023-06-26T14:38:16;3.87;;;1.27;;
69305;SDS011;56427;51.580;4.656;2023-06-26T14:40:42;4.47;;;1.50;;
69305;SDS011;56427;51.580;4.656;2023-06-26T14:43:07;3.13;;;1.35;;
69305;SDS011;56427;51.580;4.656;2023-06-26T14:45:33;3.50;;;1.23;;
69305;SDS011;56427;51.580;4.656;2023-06-26T14:47:58;5.27;;;1.37;;
69305;SDS011;56427;51.580;4.656;2023-06-26T14:50:23;4.40;;;1.10;;
69305;SDS011;56427;51.580;4.656;2023-06-26T14:52:49;3.60;;;1.17;;
69305;SDS011;56427;51.580;4.656;2023-06-26T14:55:14;5.93;;;1.38;;
69305;SDS011;56427;51.580;4.656;2023-06-26T14:57:39;3.20;;;1.30;;
69305;SDS011;56427;51.580;4.656;2023-06-26T15:00:05;4.27;;;1.30;;
69305;SDS011;56427;51.580;4.656;2023-06-26T15:02:31;5.15;;;1.30;;
69305;SDS011;56427;51.580;4.656;2023-06-26T15:04:56;7.90;;;1.20;;
69305;SDS011;56427;51.580;4.656;2023-06-26T15:07:22;3.20;;;0.90;;